Time,TemperatureF,DewpointF,PressureIn,WindDirection,WindDirectionDegrees,WindSpeedMPH,WindSpeedGustMPH,Humidity,HourlyPrecipIn,Conditions,Clouds,dailyrainin,SoftwareType,DateUTC
2013-01-30 00:05:00,52.1,49.6,29.49,WNW,300,4.0,6.0,91,0.05,,,0.01,Wunderground v.1.15,2013-01-30 06:05:00,
2013-01-30 00:10:00,52.0,49.5,29.49,WNW,300,2.0,2.0,91,0.05,,,0.01,Wunderground v.1.15,2013-01-30 06:10:00,
2013-01-30 00:15:00,51.9,49.4,29.48,WNW,300,1.0,2.0,91,0.08,,,0.02,Wunderground v.1.15,2013-01-30 06:15:00,
2013-01-30 00:25:00,51.8,49.5,29.48,WNW,300,1.0,1.0,92,0.12,,,0.04,Wunderground v.1.15,2013-01-30 06:25:00,
2013-01-30 00:30:00,51.7,49.2,29.47,WNW,300,0.0,0.0,91,0.14,,,0.06,Wunderground v.1.15,2013-01-30 06:30:00,
2013-01-30 00:40:00,51.5,49.0,29.47,WNW,300,1.0,1.0,91,0.11,,,0.07,Wunderground v.1.15,2013-01-30 06:40:00,
2013-01-30 00:50:00,51.3,48.8,29.46,WNW,300,0.0,0.0,91,0.07,,,0.09,Wunderground v.1.15,2013-01-30 06:50:00,
2013-01-30 01:00:00,51.1,48.6,29.47,WNW,296,0.0,3.0,91,0.11,,,0.11,Wunderground v.1.15,2013-01-30 07:00:00,
2013-01-30 01:10:00,51.0,48.8,29.48,SSE,160,3.0,3.0,92,0.08,,,0.13,Wunderground v.1.15,2013-01-30 07:10:00,
2013-01-30 01:15:00,50.9,48.7,29.47,SSE,159,3.0,3.0,92,0.10,,,0.13,Wunderground v.1.15,2013-01-30 07:15:00,
2013-01-30 01:25:00,50.7,48.2,29.45,SSE,156,1.0,3.0,91,0.06,,,0.14,Wunderground v.1.15,2013-01-30 07:25:00,
2013-01-30 01:30:00,50.6,48.1,29.44,SSE,151,2.0,3.0,91,0.04,,,0.14,Wunderground v.1.15,2013-01-30 07:30:00,
2013-01-30 01:35:00,50.6,48.4,29.45,SSE,151,2.0,3.0,92,0.04,,,0.15,Wunderground v.1.15,2013-01-30 07:35:00,
2013-01-30 01:45:00,50.6,48.4,29.45,SSE,150,1.0,1.0,92,0.07,,,0.16,Wunderground v.1.15,2013-01-30 07:45:00,
2013-01-30 01:55:00,50.5,48.3,29.44,SSE,150,0.0,2.0,92,0.04,,,0.16,Wunderground v.1.15,2013-01-30 07:55:00,
2013-01-30 02:00:00,50.4,48.2,29.44,SSE,150,0.0,0.0,92,0.04,,,0.17,Wunderground v.1.15,2013-01-30 08:00:00,
2013-01-30 02:05:00,50.4,48.2,29.45,SSE,150,0.0,0.0,92,0.04,,,0.17,Wunderground v.1.15,2013-01-30 08:05:00,
2013-01-30 02:15:00,50.3,48.1,29.47,SSE,150,0.0,0.0,92,0.04,,,0.18,Wunderground v.1.15,2013-01-30 08:15:00,
2013-01-30 02:20:00,50.2,48.0,29.48,SSE,150,0.0,0.0,92,0.04,,,0.18,Wunderground v.1.15,2013-01-30 08:20:00,
2013-01-30 02:30:00,50.0,47.8,29.48,SSE,150,1.0,2.0,92,0.04,,,0.19,Wunderground v.1.15,2013-01-30 08:30:00,
2013-01-30 02:40:00,49.8,47.6,29.46,SSE,150,1.0,1.0,92,0.10,,,0.21,Wunderground v.1.15,2013-01-30 08:40:00,
2013-01-30 02:45:00,49.8,47.6,29.45,SSE,150,1.0,3.0,92,0.14,,,0.22,Wunderground v.1.15,2013-01-30 08:45:00,
2013-01-30 02:50:00,49.8,47.6,29.44,SSE,150,1.0,2.0,92,0.07,,,0.23,Wunderground v.1.15,2013-01-30 08:50:00,
2013-01-30 03:00:00,49.7,47.5,29.43,SE,138,2.0,4.0,92,0.11,,,0.24,Wunderground v.1.15,2013-01-30 09:00:00,
2013-01-30 03:10:00,49.9,47.7,29.42,ESE,123,5.0,5.0,92,0.07,,,0.25,Wunderground v.1.15,2013-01-30 09:10:00,
2013-01-30 03:20:00,50.1,47.9,29.39,ESE,113,5.0,8.0,92,0.06,,,0.26,Wunderground v.1.15,2013-01-30 09:20:00,
2013-01-30 03:25:00,50.2,48.0,29.39,ESE,121,6.0,8.0,92,0.04,,,0.26,Wunderground v.1.15,2013-01-30 09:25:00,
2013-01-30 03:35:00,50.3,48.1,29.35,ESE,123,7.0,10.0,92,0.00,,,0.26,Wunderground v.1.15,2013-01-30 09:35:00,
2013-01-30 03:45:00,50.3,48.1,29.38,SSE,165,6.0,8.0,92,0.00,,,0.26,Wunderground v.1.15,2013-01-30 09:45:00,
2013-01-30 03:50:00,50.3,48.1,29.38,SSE,165,6.0,6.0,92,0.00,,,0.26,Wunderground v.1.15,2013-01-30 09:50:00,
2013-01-30 04:00:00,50.1,47.9,29.39,South,186,5.0,5.0,92,0.00,,,0.26,Wunderground v.1.15,2013-01-30 10:00:00,
2013-01-30 04:10:00,49.7,47.5,29.42,SW,217,8.0,10.0,92,0.00,,,0.26,Wunderground v.1.15,2013-01-30 10:10:00,
2013-01-30 04:15:00,49.6,47.4,29.44,SW,219,11.0,11.0,92,0.00,,,0.26,Wunderground v.1.15,2013-01-30 10:15:00,
2013-01-30 04:20:00,49.6,47.4,29.43,SSW,212,11.0,11.0,92,0.00,,,0.26,Wunderground v.1.15,2013-01-30 10:20:00,
2013-01-30 04:25:00,49.6,47.4,29.44,SW,221,11.0,12.0,92,0.00,,,0.26,Wunderground v.1.15,2013-01-30 10:25:00,
2013-01-30 04:30:00,49.6,47.4,29.45,SW,226,11.0,12.0,92,0.00,,,0.26,Wunderground v.1.15,2013-01-30 10:30:00,
2013-01-30 04:40:00,49.6,47.4,29.41,SW,215,9.0,9.0,92,0.00,,,0.26,Wunderground v.1.15,2013-01-30 10:40:00,
2013-01-30 04:50:00,49.6,47.4,29.40,SSW,213,2.0,2.0,92,0.00,,,0.26,Wunderground v.1.15,2013-01-30 10:50:00,
2013-01-30 04:55:00,49.6,47.4,29.40,South,182,2.0,2.0,92,0.00,,,0.26,Wunderground v.1.15,2013-01-30 10:55:00,
2013-01-30 05:00:00,49.5,47.3,29.39,South,182,2.0,2.0,92,0.00,,,0.26,Wunderground v.1.15,2013-01-30 11:00:00,
2013-01-30 05:05:00,49.4,47.2,29.37,South,181,3.0,3.0,92,0.00,,,0.26,Wunderground v.1.15,2013-01-30 11:05:00,
2013-01-30 05:15:00,49.0,46.8,29.36,South,175,1.0,3.0,92,0.00,,,0.26,Wunderground v.1.15,2013-01-30 11:15:00,
2013-01-30 05:20:00,48.9,46.7,29.37,SSE,157,3.0,4.0,92,0.00,,,0.26,Wunderground v.1.15,2013-01-30 11:20:00,
2013-01-30 05:25:00,48.8,46.6,29.34,SE,130,4.0,5.0,92,0.00,,,0.26,Wunderground v.1.15,2013-01-30 11:25:00,
2013-01-30 05:35:00,48.7,46.5,29.36,SSE,164,3.0,3.0,92,0.00,,,0.26,Wunderground v.1.15,2013-01-30 11:35:00,
2013-01-30 05:45:00,48.8,46.6,29.37,SSW,200,3.0,5.0,92,0.00,,,0.26,Wunderground v.1.15,2013-01-30 11:45:00,
2013-01-30 05:55:00,48.6,46.4,29.39,SSW,208,6.0,7.0,92,0.00,,,0.27,Wunderground v.1.15,2013-01-30 11:55:00,
2013-01-30 06:00:00,48.5,46.3,29.38,SSW,208,6.0,7.0,92,0.00,,,0.27,Wunderground v.1.15,2013-01-30 12:00:00,
2013-01-30 06:05:00,48.6,46.4,29.38,SSW,211,6.0,8.0,92,0.00,,,0.27,Wunderground v.1.15,2013-01-30 12:05:00,
2013-01-30 06:15:00,48.8,46.6,29.39,SW,215,9.0,14.0,92,0.00,,,0.27,Wunderground v.1.15,2013-01-30 12:15:00,
2013-01-30 06:25:00,48.8,46.6,29.37,SSW,210,9.0,11.0,92,0.00,,,0.27,Wunderground v.1.15,2013-01-30 12:25:00,
2013-01-30 06:30:00,48.8,46.6,29.38,SW,215,8.0,11.0,92,0.00,,,0.27,Wunderground v.1.15,2013-01-30 12:30:00,
2013-01-30 06:40:00,48.9,46.7,29.40,SSW,211,11.0,12.0,92,0.00,,,0.27,Wunderground v.1.15,2013-01-30 12:40:00,
2013-01-30 06:50:00,49.1,46.9,29.40,SW,219,13.0,13.0,92,0.00,,,0.27,Wunderground v.1.15,2013-01-30 12:50:00,
2013-01-30 06:55:00,49.2,47.0,29.40,SW,215,13.0,16.0,92,0.00,,,0.27,Wunderground v.1.15,2013-01-30 12:55:00,
2013-01-30 07:05:00,49.3,47.1,29.40,SW,216,12.0,17.0,92,0.00,,,0.27,Wunderground v.1.15,2013-01-30 13:05:00,
2013-01-30 07:10:00,49.3,47.1,29.40,SSW,212,12.0,14.0,92,0.00,,,0.27,Wunderground v.1.15,2013-01-30 13:10:00,
2013-01-30 07:20:00,49.4,47.2,29.40,SW,215,14.0,14.0,92,0.00,,,0.27,Wunderground v.1.15,2013-01-30 13:20:00,
2013-01-30 07:30:00,49.5,47.3,29.40,SSW,213,14.0,15.0,92,0.00,,,0.27,Wunderground v.1.15,2013-01-30 13:30:00,
2013-01-30 07:40:00,49.5,47.3,29.39,South,180,11.0,11.0,92,0.00,,,0.27,Wunderground v.1.15,2013-01-30 13:40:00,
2013-01-30 07:50:00,49.6,47.4,29.39,SW,221,11.0,11.0,92,0.00,,,0.27,Wunderground v.1.15,2013-01-30 13:50:00,
2013-01-30 07:55:00,49.6,47.4,29.39,SW,220,12.0,20.0,92,0.00,,,0.27,Wunderground v.1.15,2013-01-30 13:55:00,
2013-01-30 08:05:00,49.6,47.4,29.39,SSW,197,14.0,14.0,92,0.00,,,0.27,Wunderground v.1.15,2013-01-30 14:05:00,
2013-01-30 08:10:00,49.6,47.4,29.39,SW,217,14.0,18.0,92,0.00,,,0.27,Wunderground v.1.15,2013-01-30 14:10:00,
2013-01-30 08:20:00,49.7,47.5,29.38,SSW,213,14.0,15.0,92,0.00,,,0.27,Wunderground v.1.15,2013-01-30 14:20:00,
2013-01-30 08:25:00,49.8,47.6,29.37,SSW,209,13.0,15.0,92,0.00,,,0.27,Wunderground v.1.15,2013-01-30 14:25:00,
2013-01-30 08:35:00,50.0,47.8,29.37,SSW,196,11.0,13.0,92,0.00,,,0.27,Wunderground v.1.15,2013-01-30 14:35:00,
2013-01-30 08:45:00,50.1,47.9,29.38,SW,217,12.0,15.0,92,0.00,,,0.27,Wunderground v.1.15,2013-01-30 14:45:00,
2013-01-30 08:55:00,50.1,47.9,29.37,SSW,209,13.0,17.0,92,0.00,,,0.27,Wunderground v.1.15,2013-01-30 14:55:00,
2013-01-30 09:05:00,50.4,48.2,29.37,South,176,14.0,14.0,92,0.00,,,0.27,Wunderground v.1.15,2013-01-30 15:05:00,
2013-01-30 09:15:00,50.9,48.9,29.37,SSW,209,15.0,21.0,93,0.00,,,0.27,Wunderground v.1.15,2013-01-30 15:15:00,
2013-01-30 09:25:00,50.8,48.6,29.36,SW,223,17.0,18.0,92,0.00,,,0.27,Wunderground v.1.15,2013-01-30 15:25:00,
2013-01-30 09:30:00,51.2,49.0,29.35,SSW,213,18.0,21.0,92,0.00,,,0.27,Wunderground v.1.15,2013-01-30 15:30:00,
2013-01-30 09:35:00,51.7,49.5,29.35,SW,215,19.0,22.0,92,0.00,,,0.27,Wunderground v.1.15,2013-01-30 15:35:00,
2013-01-30 09:45:00,51.9,49.6,29.34,SSW,209,18.0,18.0,92,0.00,,,0.27,Wunderground v.1.15,2013-01-30 15:45:00,
2013-01-30 09:50:00,52.2,49.9,29.34,SSW,210,18.0,18.0,92,0.00,,,0.27,Wunderground v.1.15,2013-01-30 15:50:00,
2013-01-30 09:55:00,52.3,50.0,29.34,SW,214,18.0,19.0,92,0.00,,,0.27,Wunderground v.1.15,2013-01-30 15:55:00,
2013-01-30 10:00:00,52.3,49.5,29.34,SSW,209,19.0,19.0,90,0.00,,,0.27,Wunderground v.1.15,2013-01-30 16:00:00,
2013-01-30 10:10:00,52.2,49.1,29.34,SSW,205,19.0,19.0,89,0.00,,,0.27,Wunderground v.1.15,2013-01-30 16:10:00,
2013-01-30 10:20:00,52.4,48.9,29.34,SSW,213,21.0,21.0,88,0.00,,,0.27,Wunderground v.1.15,2013-01-30 16:20:00,
2013-01-30 10:25:00,52.5,48.7,29.34,SW,214,22.0,22.0,87,0.00,,,0.27,Wunderground v.1.15,2013-01-30 16:25:00,
2013-01-30 10:35:00,51.7,46.1,29.35,WSW,238,27.0,32.0,81,0.00,,,0.27,Wunderground v.1.15,2013-01-30 16:35:00,
2013-01-30 10:40:00,49.5,43.9,29.36,WSW,245,28.0,28.0,81,0.00,,,0.27,Wunderground v.1.15,2013-01-30 16:40:00,
2013-01-30 10:50:00,47.4,43.4,29.36,WSW,238,24.0,24.0,86,0.00,,,0.28,Wunderground v.1.15,2013-01-30 16:50:00,
2013-01-30 11:00:00,46.1,42.4,29.35,WSW,250,25.0,27.0,87,0.00,,,0.28,Wunderground v.1.15,2013-01-30 17:00:00,
2013-01-30 11:05:00,45.5,41.6,29.36,SW,229,25.0,27.0,86,0.00,,,0.28,Wunderground v.1.15,2013-01-30 17:05:00,
2013-01-30 11:15:00,44.8,41.5,29.37,SW,234,23.0,29.0,88,0.00,,,0.28,Wunderground v.1.15,2013-01-30 17:15:00,
2013-01-30 11:20:00,44.3,40.7,29.37,SW,235,23.0,23.0,87,0.00,,,0.28,Wunderground v.1.15,2013-01-30 17:20:00,
2013-01-30 11:30:00,43.5,39.9,29.36,SW,231,25.0,25.0,87,0.00,,,0.29,Wunderground v.1.15,2013-01-30 17:30:00,
2013-01-30 11:40:00,42.8,38.6,29.37,SW,225,23.0,25.0,85,0.00,,,0.29,Wunderground v.1.15,2013-01-30 17:40:00,
2013-01-30 11:50:00,42.0,37.8,29.37,WSW,238,26.0,26.0,85,0.00,,,0.29,Wunderground v.1.15,2013-01-30 17:50:00,
2013-01-30 11:55:00,41.7,37.5,29.37,SW,232,27.0,27.0,85,0.00,,,0.29,Wunderground v.1.15,2013-01-30 17:55:00,
2013-01-30 12:00:00,41.7,37.5,29.37,SW,235,26.0,26.0,85,0.00,,,0.29,Wunderground v.1.15,2013-01-30 18:00:00,
2013-01-30 12:10:00,41.6,37.4,29.37,SW,229,24.0,24.0,85,0.00,,,0.29,Wunderground v.1.15,2013-01-30 18:10:00,
2013-01-30 12:15:00,41.5,37.3,29.37,WSW,242,23.0,24.0,85,0.00,,,0.29,Wunderground v.1.15,2013-01-30 18:15:00,
2013-01-30 12:25:00,41.2,36.4,29.38,WSW,239,24.0,24.0,83,0.00,,,0.29,Wunderground v.1.15,2013-01-30 18:25:00,
2013-01-30 12:35:00,40.5,35.7,29.36,WSW,238,26.0,33.0,83,0.00,,,0.29,Wunderground v.1.15,2013-01-30 18:35:00,
2013-01-30 12:45:00,39.7,35.3,29.38,SW,236,25.0,26.0,84,0.00,,,0.29,Wunderground v.1.15,2013-01-30 18:45:00,
2013-01-30 12:50:00,39.3,34.9,29.39,WSW,243,24.0,25.0,84,0.00,,,0.29,Wunderground v.1.15,2013-01-30 18:50:00,
2013-01-30 12:55:00,38.8,34.1,29.39,WSW,250,25.0,25.0,83,0.00,,,0.29,Wunderground v.1.15,2013-01-30 18:55:00,
2013-01-30 13:05:00,38.3,33.6,29.39,WSW,241,27.0,29.0,83,0.00,,,0.29,Wunderground v.1.15,2013-01-30 19:05:00,
2013-01-30 13:15:00,38.5,33.8,29.38,WSW,257,25.0,27.0,83,0.00,,,0.29,Wunderground v.1.15,2013-01-30 19:15:00,
2013-01-30 13:20:00,38.5,33.8,29.39,WSW,243,25.0,25.0,83,0.00,,,0.29,Wunderground v.1.15,2013-01-30 19:20:00,
2013-01-30 13:30:00,38.5,33.5,29.39,SW,231,22.0,30.0,82,0.00,,,0.29,Wunderground v.1.15,2013-01-30 19:30:00,
2013-01-30 13:40:00,38.2,33.2,29.39,WSW,244,25.0,25.0,82,0.00,,,0.29,Wunderground v.1.15,2013-01-30 19:40:00,
2013-01-30 13:50:00,38.6,33.9,29.38,WSW,244,23.0,24.0,83,0.00,,,0.29,Wunderground v.1.15,2013-01-30 19:50:00,
2013-01-30 13:55:00,38.8,33.8,29.38,WSW,248,23.0,24.0,82,0.00,,,0.29,Wunderground v.1.15,2013-01-30 19:55:00,
2013-01-30 14:05:00,38.3,33.3,29.39,WSW,242,25.0,26.0,82,0.00,,,0.29,Wunderground v.1.15,2013-01-30 20:05:00,
2013-01-30 14:10:00,37.8,32.5,29.39,WSW,238,26.0,26.0,81,0.00,,,0.29,Wunderground v.1.15,2013-01-30 20:10:00,
2013-01-30 14:20:00,37.0,32.3,29.39,SW,218,25.0,26.0,83,0.00,,,0.29,Wunderground v.1.15,2013-01-30 20:20:00,
2013-01-30 14:25:00,37.0,32.6,29.41,WSW,238,23.0,26.0,84,0.00,,,0.29,Wunderground v.1.15,2013-01-30 20:25:00,
2013-01-30 14:30:00,37.0,32.6,29.41,WSW,245,21.0,28.0,84,0.00,,,0.29,Wunderground v.1.15,2013-01-30 20:30:00,
2013-01-30 14:35:00,36.8,32.1,29.42,WSW,248,23.0,28.0,83,0.00,,,0.29,Wunderground v.1.15,2013-01-30 20:35:00,
2013-01-30 14:45:00,36.9,32.8,29.42,WSW,240,24.0,25.0,85,0.00,,,0.29,Wunderground v.1.15,2013-01-30 20:45:00,
2013-01-30 14:50:00,36.6,31.9,29.42,WSW,238,26.0,35.0,83,0.00,,,0.29,Wunderground v.1.15,2013-01-30 20:50:00,
2013-01-30 15:00:00,36.0,31.6,29.42,WSW,252,26.0,27.0,84,0.00,,,0.29,Wunderground v.1.15,2013-01-30 21:00:00,
2013-01-30 15:05:00,35.7,31.3,29.42,WSW,254,23.0,27.0,84,0.00,,,0.29,Wunderground v.1.15,2013-01-30 21:05:00,
2013-01-30 15:15:00,35.0,30.9,29.43,West,263,26.0,26.0,85,0.00,,,0.29,Wunderground v.1.15,2013-01-30 21:15:00,
2013-01-30 15:20:00,34.6,30.6,29.44,WSW,241,24.0,24.0,85,0.00,,,0.29,Wunderground v.1.15,2013-01-30 21:20:00,
2013-01-30 15:30:00,33.9,29.9,29.45,WSW,238,25.0,27.0,85,0.00,,,0.29,Wunderground v.1.15,2013-01-30 21:30:00,
2013-01-30 15:40:00,33.4,29.4,29.46,WSW,254,25.0,25.0,85,0.00,,,0.29,Wunderground v.1.15,2013-01-30 21:40:00,
2013-01-30 15:45:00,33.3,29.3,29.47,WSW,248,24.0,25.0,85,0.00,,,0.29,Wunderground v.1.15,2013-01-30 21:45:00,
2013-01-30 15:55:00,33.2,29.2,29.47,West,262,21.0,23.0,85,0.00,,,0.29,Wunderground v.1.15,2013-01-30 21:55:00,
2013-01-30 16:00:00,33.2,29.5,29.47,WSW,245,19.0,23.0,86,0.00,,,0.29,Wunderground v.1.15,2013-01-30 22:00:00,
2013-01-30 16:10:00,32.9,28.6,29.47,West,261,23.0,23.0,84,0.00,,,0.29,Wunderground v.1.15,2013-01-30 22:10:00,
2013-01-30 16:15:00,32.8,28.2,29.48,WSW,251,23.0,29.0,83,0.00,,,0.29,Wunderground v.1.15,2013-01-30 22:15:00,
2013-01-30 16:25:00,32.7,28.4,29.49,WSW,257,20.0,25.0,84,0.00,,,0.29,Wunderground v.1.15,2013-01-30 22:25:00,
2013-01-30 16:35:00,32.5,28.5,29.50,WSW,255,23.0,26.0,85,0.00,,,0.29,Wunderground v.1.15,2013-01-30 22:35:00,
2013-01-30 16:40:00,32.1,28.1,29.50,WSW,252,25.0,25.0,85,0.00,,,0.29,Wunderground v.1.15,2013-01-30 22:40:00,
2013-01-30 16:50:00,31.3,27.6,29.51,West,262,25.0,26.0,86,0.00,,,0.29,Wunderground v.1.15,2013-01-30 22:50:00,
2013-01-30 17:00:00,30.8,27.1,29.52,WSW,238,24.0,29.0,86,0.00,,,0.29,Wunderground v.1.15,2013-01-30 23:00:00,
2013-01-30 17:05:00,30.7,27.0,29.53,WSW,258,24.0,29.0,86,0.00,,,0.29,Wunderground v.1.15,2013-01-30 23:05:00,
2013-01-30 17:15:00,30.5,26.5,29.53,West,259,22.0,37.0,85,0.00,,,0.29,Wunderground v.1.15,2013-01-30 23:15:00,
2013-01-30 17:20:00,30.4,26.4,29.54,WSW,252,23.0,23.0,85,0.00,,,0.29,Wunderground v.1.15,2013-01-30 23:20:00,
2013-01-30 17:30:00,30.2,26.2,29.55,West,261,21.0,23.0,85,0.00,,,0.29,Wunderground v.1.15,2013-01-30 23:30:00,
2013-01-30 17:35:00,30.1,25.8,29.55,WSW,250,20.0,23.0,84,0.00,,,0.29,Wunderground v.1.15,2013-01-30 23:35:00,
2013-01-30 17:40:00,29.9,25.1,29.55,West,271,21.0,21.0,82,0.00,,,0.29,Wunderground v.1.15,2013-01-30 23:40:00,
2013-01-30 17:50:00,29.9,25.1,29.56,WSW,254,20.0,22.0,82,0.00,,,0.29,Wunderground v.1.15,2013-01-30 23:50:00,
2013-01-30 17:55:00,29.9,25.1,29.57,West,271,20.0,22.0,82,0.00,,,0.29,Wunderground v.1.15,2013-01-30 23:55:00,
2013-01-30 18:00:00,29.9,25.1,29.57,West,262,19.0,21.0,82,0.00,,,0.29,Wunderground v.1.15,2013-01-31 00:00:00,
2013-01-30 18:10:00,29.8,24.7,29.58,West,260,20.0,22.0,81,0.00,,,0.29,Wunderground v.1.15,2013-01-31 00:10:00,
2013-01-30 18:15:00,29.7,24.3,29.58,West,264,20.0,22.0,80,0.00,,,0.29,Wunderground v.1.15,2013-01-31 00:15:00,
2013-01-30 18:25:00,29.6,24.5,29.59,West,263,17.0,23.0,81,0.00,,,0.29,Wunderground v.1.15,2013-01-31 00:25:00,
2013-01-30 18:35:00,29.4,23.7,29.60,West,274,18.0,23.0,79,0.00,,,0.29,Wunderground v.1.15,2013-01-31 00:35:00,
2013-01-30 18:40:00,29.2,23.5,29.60,WNW,292,19.0,25.0,79,0.00,,,0.29,Wunderground v.1.15,2013-01-31 00:40:00,
2013-01-30 18:50:00,29.1,23.7,29.60,West,270,18.0,18.0,80,0.00,,,0.29,Wunderground v.1.15,2013-01-31 00:50:00,
2013-01-30 18:55:00,29.0,23.6,29.60,West,260,19.0,19.0,80,0.00,,,0.29,Wunderground v.1.15,2013-01-31 00:55:00,
2013-01-30 19:00:00,29.0,23.9,29.60,West,261,19.0,20.0,81,0.00,,,0.29,Wunderground v.1.15,2013-01-31 01:00:00,
2013-01-30 19:05:00,29.0,23.6,29.61,SW,234,18.0,22.0,80,0.00,,,0.29,Wunderground v.1.15,2013-01-31 01:05:00,
2013-01-30 19:15:00,29.1,24.0,29.61,West,262,19.0,23.0,81,0.00,,,0.29,Wunderground v.1.15,2013-01-31 01:15:00,
2013-01-30 19:20:00,29.1,24.0,29.61,WSW,248,20.0,20.0,81,0.00,,,0.29,Wunderground v.1.15,2013-01-31 01:20:00,
2013-01-30 19:25:00,29.0,23.9,29.61,WSW,251,21.0,21.0,81,0.00,,,0.29,Wunderground v.1.15,2013-01-31 01:25:00,
2013-01-30 19:35:00,28.7,23.3,29.62,West,262,21.0,25.0,80,0.00,,,0.29,Wunderground v.1.15,2013-01-31 01:35:00,
2013-01-30 19:45:00,28.5,23.1,29.63,West,263,21.0,21.0,80,0.00,,,0.29,Wunderground v.1.15,2013-01-31 01:45:00,
2013-01-30 19:55:00,28.2,22.8,29.64,West,265,22.0,24.0,80,0.00,,,0.29,Wunderground v.1.15,2013-01-31 01:55:00,
2013-01-30 20:00:00,28.0,22.6,29.64,WSW,252,21.0,33.0,80,0.00,,,0.29,Wunderground v.1.15,2013-01-31 02:00:00,
2013-01-30 20:05:00,27.8,22.7,29.65,WSW,257,23.0,33.0,81,0.00,,,0.29,Wunderground v.1.15,2013-01-31 02:05:00,
2013-01-30 20:15:00,27.4,22.0,29.66,West,267,21.0,25.0,80,0.00,,,0.29,Wunderground v.1.15,2013-01-31 02:15:00,
2013-01-30 20:20:00,27.1,21.5,29.66,WSW,248,22.0,24.0,79,0.00,,,0.29,Wunderground v.1.15,2013-01-31 02:20:00,
2013-01-30 20:30:00,26.8,21.2,29.67,West,259,23.0,23.0,79,0.00,,,0.29,Wunderground v.1.15,2013-01-31 02:30:00,
2013-01-30 20:40:00,26.5,20.6,29.68,West,263,21.0,21.0,78,0.00,,,0.29,Wunderground v.1.15,2013-01-31 02:40:00,
2013-01-30 20:45:00,26.3,20.1,29.68,WSW,257,20.0,27.0,77,0.00,,,0.29,Wunderground v.1.15,2013-01-31 02:45:00,
2013-01-30 20:55:00,26.2,20.3,29.69,WSW,245,20.0,22.0,78,0.00,,,0.29,Wunderground v.1.15,2013-01-31 02:55:00,
2013-01-30 21:00:00,26.1,20.2,29.70,West,267,20.0,20.0,78,0.00,,,0.29,Wunderground v.1.15,2013-01-31 03:00:00,
2013-01-30 21:05:00,25.9,19.4,29.71,West,271,21.0,31.0,76,0.00,,,0.29,Wunderground v.1.15,2013-01-31 03:05:00,
2013-01-30 21:15:00,25.6,19.4,29.72,West,270,18.0,21.0,77,0.00,,,0.29,Wunderground v.1.15,2013-01-31 03:15:00,
2013-01-30 21:25:00,25.5,19.3,29.72,West,276,20.0,27.0,77,0.00,,,0.29,Wunderground v.1.15,2013-01-31 03:25:00,
2013-01-30 21:35:00,25.3,18.5,29.73,West,261,21.0,22.0,75,0.00,,,0.29,Wunderground v.1.15,2013-01-31 03:35:00,
2013-01-30 21:40:00,25.2,18.7,29.73,WSW,256,19.0,19.0,76,0.00,,,0.29,Wunderground v.1.15,2013-01-31 03:40:00,
2013-01-30 21:50:00,25.2,19.0,29.74,West,268,19.0,19.0,77,0.00,,,0.29,Wunderground v.1.15,2013-01-31 03:50:00,
2013-01-30 22:00:00,25.0,17.9,29.74,West,266,22.0,22.0,74,0.00,,,0.29,Wunderground v.1.15,2013-01-31 04:00:00,
2013-01-30 22:05:00,24.9,17.8,29.74,WSW,255,21.0,22.0,74,0.00,,,0.29,Wunderground v.1.15,2013-01-31 04:05:00,
2013-01-30 22:15:00,24.6,18.1,29.75,West,273,19.0,19.0,76,0.00,,,0.29,Wunderground v.1.15,2013-01-31 04:15:00,
2013-01-30 22:20:00,24.4,17.9,29.75,West,264,18.0,18.0,76,0.00,,,0.29,Wunderground v.1.15,2013-01-31 04:20:00,
2013-01-30 22:30:00,24.3,18.4,29.76,WSW,254,23.0,23.0,78,0.00,,,0.29,Wunderground v.1.15,2013-01-31 04:30:00,
2013-01-30 22:35:00,24.2,18.0,29.76,WSW,252,23.0,25.0,77,0.00,,,0.29,Wunderground v.1.15,2013-01-31 04:35:00,
2013-01-30 22:45:00,24.2,18.0,29.77,West,265,19.0,28.0,77,0.00,,,0.29,Wunderground v.1.15,2013-01-31 04:45:00,
2013-01-30 22:55:00,24.2,18.0,29.77,West,272,21.0,25.0,77,0.00,,,0.29,Wunderground v.1.15,2013-01-31 04:55:00,
2013-01-30 23:00:00,24.2,18.0,29.77,West,262,18.0,18.0,77,0.00,,,0.29,Wunderground v.1.15,2013-01-31 05:00:00,
2013-01-30 23:05:00,24.3,18.4,29.78,WSW,250,16.0,19.0,78,0.00,,,0.29,Wunderground v.1.15,2013-01-31 05:05:00,
2013-01-30 23:10:00,24.5,18.9,29.78,West,259,17.0,26.0,79,0.00,,,0.29,Wunderground v.1.15,2013-01-31 05:10:00,
2013-01-30 23:15:00,24.5,18.3,29.78,WSW,248,22.0,26.0,77,0.00,,,0.29,Wunderground v.1.15,2013-01-31 05:15:00,
2013-01-30 23:20:00,24.5,18.0,29.79,WSW,256,24.0,25.0,76,0.00,,,0.29,Wunderground v.1.15,2013-01-31 05:20:00,
2013-01-30 23:30:00,24.2,17.7,29.80,WSW,251,22.0,22.0,76,0.00,,,0.29,Wunderground v.1.15,2013-01-31 05:30:00,
2013-01-30 23:35:00,24.1,17.9,29.80,WSW,244,22.0,22.0,77,0.00,,,0.29,Wunderground v.1.15,2013-01-31 05:35:00,
2013-01-30 23:40:00,24.0,17.5,29.80,WSW,252,23.0,23.0,76,0.00,,,0.29,Wunderground v.1.15,2013-01-31 05:40:00,
2013-01-30 23:50:00,23.9,17.4,29.81,West,265,22.0,22.0,76,0.00,,,0.29,Wunderground v.1.15,2013-01-31 05:50:00,